Little Neck, NY (11363)

5:06 PM EDT on July 27, 2016 (GMT -0400)
Oakland Gardens | | Change Station

Elev 95 ft 40.75 °N, 73.75 °W | Updated 1 minute ago

Scattered Clouds
Scattered Clouds
89.9 °F
Feels Like 97 °F
N
0.6
Wind Variable Wind from NNW
Gusts 3.0 mph

Today
High -- | Low -- °F
--% Chance of Precip.
Yesterday
High -- | Low -- °F
Precip. -- in
Pressure 29.88 in
Visibility 10.0 miles
Clouds Scattered Clouds 7000 ft
Scattered Clouds 25000 ft
Heat Index 97 °F
Dew Point 72 °F
Humidity 55%
Rainfall 0.00 in
Snow Depth Not available.
5:47 AM 8:15 PM
Last Quarter, 39% visible
METAR KLGA 272051Z 15009KT 10SM SCT070 SCT250 34/17 A2988 RMK AO2 SLP117 T03440172 58012 $
Pressure 29.88 in
Visibility 10.0 miles
Clouds Scattered Clouds 7000 ft
Scattered Clouds 25000 ft
Heat Index 97 °F
Dew Point 72 °F
Humidity 55%
Rainfall 0.00 in
Snow Depth Not available.
5:47 AM 8:15 PM
Last Quarter, 39% visible
METAR KLGA 272051Z 15009KT 10SM SCT070 SCT250 34/17 A2988 RMK AO2 SLP117 T03440172 58012 $

10-Day Weather Forecast

Almanac

Astronomy

Jul. 27, 2016 Rise Set
Actual Time
Civil Twilight
Nautical Twilight
Astronomical Twilight
Moon
Length of Visible Light
Length of Day
Tomorrow will be .
, % of the Moon is Illuminated

Today's Extremes

State Highs State Lows

Community

WunderPhotos

Upload Photos

1,927,936 photos uploaded!

WunderBlog® & News

Nearby

Air Quality

  Air Quality AQ Index Pollutant
Not available.

Snow Depth

Station Depth Elevation

Earthquake Activity

City Distance Mag. Time & Date
Minimum magnitude displayed is 2.5.

Coastal Water Temperatures

Place Temperature

Stations

Nearby Weather Stations

Station Location Temp. Windchill Dew Point Humidity Wind Precip. Elev Updated Type
                   

Watches & Warnings

There are currently no watches in effect.